sensor_id;sensor_type;location;lat;lon;timestamp;P1;durP1;ratioP1;P2;durP2;ratioP2
71087;SDS011;58747;50.674;4.616;2022-11-15T00:01:06;20.48;;;12.32;;
71087;SDS011;58747;50.674;4.616;2022-11-15T00:03:38;22.63;;;12.27;;
71087;SDS011;58747;50.674;4.616;2022-11-15T00:06:03;24.13;;;12.27;;
71087;SDS011;58747;50.674;4.616;2022-11-15T00:08:32;23.10;;;12.80;;
71087;SDS011;58747;50.674;4.616;2022-11-15T00:10:58;19.85;;;12.68;;
71087;SDS011;58747;50.674;4.616;2022-11-15T00:13:25;23.65;;;13.38;;
71087;SDS011;58747;50.674;4.616;2022-11-15T00:15:51;16.98;;;11.95;;
71087;SDS011;58747;50.674;4.616;2022-11-15T00:18:17;21.13;;;12.67;;
71087;SDS011;58747;50.674;4.616;2022-11-15T00:20:43;17.98;;;12.13;;
71087;SDS011;58747;50.674;4.616;2022-11-15T00:23:08;19.13;;;13.53;;
71087;SDS011;58747;50.674;4.616;2022-11-15T00:25:34;20.43;;;11.33;;
71087;SDS011;58747;50.674;4.616;2022-11-15T00:27:59;19.27;;;11.88;;
71087;SDS011;58747;50.674;4.616;2022-11-15T00:30:26;20.55;;;11.85;;
71087;SDS011;58747;50.674;4.616;2022-11-15T00:32:52;19.17;;;11.83;;
71087;SDS011;58747;50.674;4.616;2022-11-15T00:35:18;21.38;;;11.25;;
71087;SDS011;58747;50.674;4.616;2022-11-15T00:37:44;17.40;;;10.37;;
71087;SDS011;58747;50.674;4.616;2022-11-15T00:40:10;16.85;;;10.80;;
71087;SDS011;58747;50.674;4.616;2022-11-15T00:42:37;16.10;;;10.73;;
71087;SDS011;58747;50.674;4.616;2022-11-15T00:45:03;18.13;;;10.73;;
71087;SDS011;58747;50.674;4.616;2022-11-15T00:47:28;14.80;;;10.07;;
71087;SDS011;58747;50.674;4.616;2022-11-15T00:49:54;18.00;;;10.97;;
71087;SDS011;58747;50.674;4.616;2022-11-15T00:52:19;16.52;;;9.70;;
71087;SDS011;58747;50.674;4.616;2022-11-15T00:54:44;18.60;;;11.57;;
71087;SDS011;58747;50.674;4.616;2022-11-15T00:57:10;15.97;;;11.23;;
71087;SDS011;58747;50.674;4.616;2022-11-15T00:59:35;19.67;;;11.50;;
71087;SDS011;58747;50.674;4.616;2022-11-15T01:02:00;18.87;;;10.43;;
71087;SDS011;58747;50.674;4.616;2022-11-15T01:04:26;16.63;;;11.10;;
71087;SDS011;58747;50.674;4.616;2022-11-15T01:06:51;17.52;;;11.25;;
71087;SDS011;58747;50.674;4.616;2022-11-15T01:09:17;17.87;;;11.53;;
71087;SDS011;58747;50.674;4.616;2022-11-15T01:11:42;18.63;;;10.87;;
71087;SDS011;58747;50.674;4.616;2022-11-15T01:14:08;18.63;;;10.98;;
71087;SDS011;58747;50.674;4.616;2022-11-15T01:16:33;18.20;;;11.17;;
71087;SDS011;58747;50.674;4.616;2022-11-15T01:18:59;23.97;;;11.93;;
71087;SDS011;58747;50.674;4.616;2022-11-15T01:21:24;20.27;;;11.43;;
71087;SDS011;58747;50.674;4.616;2022-11-15T01:23:53;16.33;;;10.85;;
71087;SDS011;58747;50.674;4.616;2022-11-15T01:26:20;19.27;;;11.93;;
71087;SDS011;58747;50.674;4.616;2022-11-15T01:28:45;23.00;;;14.00;;
71087;SDS011;58747;50.674;4.616;2022-11-15T01:31:12;20.10;;;12.10;;
71087;SDS011;58747;50.674;4.616;2022-11-15T01:33:39;19.20;;;12.05;;
71087;SDS011;58747;50.674;4.616;2022-11-15T01:36:13;18.20;;;12.77;;
71087;SDS011;58747;50.674;4.616;2022-11-15T01:38:41;20.45;;;12.18;;
71087;SDS011;58747;50.674;4.616;2022-11-15T01:41:06;20.43;;;12.33;;
71087;SDS011;58747;50.674;4.616;2022-11-15T01:43:41;21.15;;;12.52;;
71087;SDS011;58747;50.674;4.616;2022-11-15T01:46:22;20.83;;;12.80;;
71087;SDS011;58747;50.674;4.616;2022-11-15T01:48:51;23.33;;;13.05;;
71087;SDS011;58747;50.674;4.616;2022-11-15T01:51:18;23.95;;;12.60;;
71087;SDS011;58747;50.674;4.616;2022-11-15T01:53:47;21.07;;;12.23;;
71087;SDS011;58747;50.674;4.616;2022-11-15T01:56:17;21.67;;;12.60;;
71087;SDS011;58747;50.674;4.616;2022-11-15T01:58:46;25.88;;;13.40;;
71087;SDS011;58747;50.674;4.616;2022-11-15T02:01:13;24.67;;;14.30;;
71087;SDS011;58747;50.674;4.616;2022-11-15T02:03:44;21.85;;;12.45;;
71087;SDS011;58747;50.674;4.616;2022-11-15T02:06:14;22.97;;;12.70;;
71087;SDS011;58747;50.674;4.616;2022-11-15T02:08:40;22.55;;;12.73;;
71087;SDS011;58747;50.674;4.616;2022-11-15T02:11:09;23.08;;;13.70;;
71087;SDS011;58747;50.674;4.616;2022-11-15T02:13:35;19.93;;;12.73;;
71087;SDS011;58747;50.674;4.616;2022-11-15T02:16:13;23.65;;;12.93;;
71087;SDS011;58747;50.674;4.616;2022-11-15T02:19:02;22.63;;;12.88;;
71087;SDS011;58747;50.674;4.616;2022-11-15T02:21:49;20.80;;;12.82;;
71087;SDS011;58747;50.674;4.616;2022-11-15T02:27:20;22.43;;;13.63;;
71087;SDS011;58747;50.674;4.616;2022-11-15T02:32:44;23.25;;;14.00;;
71087;SDS011;58747;50.674;4.616;2022-11-15T02:37:55;22.13;;;13.32;;
71087;SDS011;58747;50.674;4.616;2022-11-15T02:43:08;22.80;;;13.73;;
71087;SDS011;58747;50.674;4.616;2022-11-15T02:45:56;22.55;;;13.63;;
71087;SDS011;58747;50.674;4.616;2022-11-15T02:48:28;23.45;;;13.20;;
71087;SDS011;58747;50.674;4.616;2022-11-15T02:50:56;26.23;;;13.18;;
71087;SDS011;58747;50.674;4.616;2022-11-15T02:53:24;24.60;;;13.50;;
71087;SDS011;58747;50.674;4.616;2022-11-15T02:55:50;25.83;;;13.95;;
71087;SDS011;58747;50.674;4.616;2022-11-15T03:01:12;21.15;;;12.63;;
71087;SDS011;58747;50.674;4.616;2022-11-15T03:06:59;21.57;;;13.70;;
71087;SDS011;58747;50.674;4.616;2022-11-15T03:09:39;22.67;;;13.40;;
71087;SDS011;58747;50.674;4.616;2022-11-15T03:12:32;21.15;;;13.15;;
71087;SDS011;58747;50.674;4.616;2022-11-15T03:15:09;27.85;;;13.27;;
71087;SDS011;58747;50.674;4.616;2022-11-15T03:17:43;24.83;;;13.43;;
71087;SDS011;58747;50.674;4.616;2022-11-15T03:20:17;22.97;;;13.23;;
71087;SDS011;58747;50.674;4.616;2022-11-15T03:22:44;23.92;;;12.98;;
71087;SDS011;58747;50.674;4.616;2022-11-15T03:25:13;23.75;;;13.45;;
71087;SDS011;58747;50.674;4.616;2022-11-15T03:27:44;23.13;;;12.75;;
71087;SDS011;58747;50.674;4.616;2022-11-15T03:30:13;23.95;;;13.02;;
71087;SDS011;58747;50.674;4.616;2022-11-15T03:32:53;23.23;;;13.10;;
71087;SDS011;58747;50.674;4.616;2022-11-15T03:35:22;23.08;;;12.73;;
71087;SDS011;58747;50.674;4.616;2022-11-15T03:37:51;20.85;;;12.02;;
71087;SDS011;58747;50.674;4.616;2022-11-15T03:40:39;17.90;;;11.13;;
71087;SDS011;58747;50.674;4.616;2022-11-15T03:43:09;18.85;;;11.32;;
71087;SDS011;58747;50.674;4.616;2022-11-15T03:45:51;22.93;;;10.97;;
71087;SDS011;58747;50.674;4.616;2022-11-15T03:48:21;20.98;;;11.00;;
71087;SDS011;58747;50.674;4.616;2022-11-15T03:50:50;21.33;;;12.00;;
71087;SDS011;58747;50.674;4.616;2022-11-15T03:53:15;17.67;;;11.27;;
71087;SDS011;58747;50.674;4.616;2022-11-15T03:55:41;20.48;;;10.65;;
71087;SDS011;58747;50.674;4.616;2022-11-15T03:58:06;18.00;;;10.37;;
71087;SDS011;58747;50.674;4.616;2022-11-15T04:00:32;18.47;;;10.37;;
71087;SDS011;58747;50.674;4.616;2022-11-15T04:02:57;18.27;;;9.70;;
71087;SDS011;58747;50.674;4.616;2022-11-15T04:05:23;18.80;;;9.77;;
71087;SDS011;58747;50.674;4.616;2022-11-15T04:07:49;17.17;;;9.80;;
71087;SDS011;58747;50.674;4.616;2022-11-15T04:10:14;18.87;;;10.73;;
71087;SDS011;58747;50.674;4.616;2022-11-15T04:12:41;20.17;;;9.63;;
71087;SDS011;58747;50.674;4.616;2022-11-15T04:15:12;18.88;;;10.75;;
71087;SDS011;58747;50.674;4.616;2022-11-15T04:17:40;19.33;;;9.23;;
71087;SDS011;58747;50.674;4.616;2022-11-15T04:20:26;15.35;;;8.38;;
71087;SDS011;58747;50.674;4.616;2022-11-15T04:23:21;15.73;;;8.67;;
71087;SDS011;58747;50.674;4.616;2022-11-15T04:28:33;17.85;;;8.43;;
71087;SDS011;58747;50.674;4.616;2022-11-15T04:30:58;17.00;;;8.60;;
71087;SDS011;58747;50.674;4.616;2022-11-15T04:33:24;13.30;;;8.60;;
71087;SDS011;58747;50.674;4.616;2022-11-15T04:35:50;13.23;;;8.67;;
71087;SDS011;58747;50.674;4.616;2022-11-15T04:38:34;15.37;;;8.17;;
71087;SDS011;58747;50.674;4.616;2022-11-15T04:41:00;15.77;;;7.90;;
71087;SDS011;58747;50.674;4.616;2022-11-15T04:43:26;14.68;;;7.97;;
71087;SDS011;58747;50.674;4.616;2022-11-15T04:45:52;13.83;;;8.63;;
71087;SDS011;58747;50.674;4.616;2022-11-15T04:48:17;16.95;;;7.93;;
71087;SDS011;58747;50.674;4.616;2022-11-15T04:50:43;15.47;;;8.37;;
71087;SDS011;58747;50.674;4.616;2022-11-15T04:53:08;11.63;;;7.40;;
71087;SDS011;58747;50.674;4.616;2022-11-15T04:55:33;13.97;;;8.00;;
71087;SDS011;58747;50.674;4.616;2022-11-15T04:57:59;14.37;;;8.33;;
71087;SDS011;58747;50.674;4.616;2022-11-15T05:00:26;13.88;;;6.72;;
71087;SDS011;58747;50.674;4.616;2022-11-15T05:02:52;13.57;;;7.72;;
71087;SDS011;58747;50.674;4.616;2022-11-15T05:05:36;11.80;;;7.17;;
71087;SDS011;58747;50.674;4.616;2022-11-15T05:08:02;14.27;;;7.05;;
71087;SDS011;58747;50.674;4.616;2022-11-15T05:10:27;11.80;;;7.43;;
71087;SDS011;58747;50.674;4.616;2022-11-15T05:12:52;15.77;;;7.83;;
71087;SDS011;58747;50.674;4.616;2022-11-15T05:15:18;14.83;;;7.97;;
71087;SDS011;58747;50.674;4.616;2022-11-15T05:17:43;16.00;;;8.23;;
71087;SDS011;58747;50.674;4.616;2022-11-15T05:20:09;12.77;;;7.40;;
71087;SDS011;58747;50.674;4.616;2022-11-15T05:22:34;14.38;;;6.93;;
71087;SDS011;58747;50.674;4.616;2022-11-15T05:25:00;13.53;;;7.13;;
71087;SDS011;58747;50.674;4.616;2022-11-15T05:27:25;11.30;;;7.40;;
71087;SDS011;58747;50.674;4.616;2022-11-15T05:29:50;14.50;;;8.10;;
71087;SDS011;58747;50.674;4.616;2022-11-15T05:32:16;14.03;;;7.00;;
71087;SDS011;58747;50.674;4.616;2022-11-15T05:34:42;14.10;;;7.40;;
71087;SDS011;58747;50.674;4.616;2022-11-15T05:37:08;16.63;;;7.68;;
71087;SDS011;58747;50.674;4.616;2022-11-15T05:39:33;15.63;;;7.73;;
71087;SDS011;58747;50.674;4.616;2022-11-15T05:42:00;15.23;;;8.33;;
71087;SDS011;58747;50.674;4.616;2022-11-15T05:44:27;14.95;;;8.15;;
71087;SDS011;58747;50.674;4.616;2022-11-15T05:46:53;15.63;;;8.43;;
71087;SDS011;58747;50.674;4.616;2022-11-15T05:49:21;19.42;;;9.45;;
71087;SDS011;58747;50.674;4.616;2022-11-15T05:51:49;17.88;;;8.07;;
71087;SDS011;58747;50.674;4.616;2022-11-15T05:54:17;17.85;;;8.18;;
71087;SDS011;58747;50.674;4.616;2022-11-15T05:56:42;13.03;;;8.17;;
71087;SDS011;58747;50.674;4.616;2022-11-15T05:59:08;14.90;;;8.38;;
71087;SDS011;58747;50.674;4.616;2022-11-15T06:01:34;13.25;;;8.73;;
71087;SDS011;58747;50.674;4.616;2022-11-15T06:04:00;15.50;;;7.40;;
71087;SDS011;58747;50.674;4.616;2022-11-15T06:06:27;12.73;;;7.23;;
71087;SDS011;58747;50.674;4.616;2022-11-15T06:08:52;14.07;;;7.55;;
71087;SDS011;58747;50.674;4.616;2022-11-15T06:11:18;15.70;;;7.23;;
71087;SDS011;58747;50.674;4.616;2022-11-15T06:13:43;14.83;;;8.37;;
71087;SDS011;58747;50.674;4.616;2022-11-15T06:16:08;15.40;;;7.43;;
71087;SDS011;58747;50.674;4.616;2022-11-15T06:18:34;13.43;;;6.65;;
71087;SDS011;58747;50.674;4.616;2022-11-15T06:21:00;15.43;;;7.07;;
71087;SDS011;58747;50.674;4.616;2022-11-15T06:23:26;9.50;;;5.93;;
71087;SDS011;58747;50.674;4.616;2022-11-15T06:25:52;9.43;;;5.90;;
71087;SDS011;58747;50.674;4.616;2022-11-15T06:28:17;11.65;;;6.00;;
71087;SDS011;58747;50.674;4.616;2022-11-15T06:30:42;11.83;;;5.93;;
71087;SDS011;58747;50.674;4.616;2022-11-15T06:33:08;10.17;;;5.47;;
71087;SDS011;58747;50.674;4.616;2022-11-15T06:35:34;9.00;;;6.30;;
71087;SDS011;58747;50.674;4.616;2022-11-15T06:38:03;8.07;;;4.70;;
71087;SDS011;58747;50.674;4.616;2022-11-15T06:40:34;8.35;;;4.43;;
71087;SDS011;58747;50.674;4.616;2022-11-15T06:43:03;9.20;;;5.32;;
71087;SDS011;58747;50.674;4.616;2022-11-15T06:45:29;11.70;;;5.00;;
71087;SDS011;58747;50.674;4.616;2022-11-15T06:47:55;11.23;;;5.53;;
71087;SDS011;58747;50.674;4.616;2022-11-15T06:50:21;9.15;;;5.18;;
71087;SDS011;58747;50.674;4.616;2022-11-15T06:52:46;10.70;;;5.00;;
71087;SDS011;58747;50.674;4.616;2022-11-15T06:55:12;7.87;;;4.93;;
71087;SDS011;58747;50.674;4.616;2022-11-15T06:57:42;10.77;;;5.03;;
71087;SDS011;58747;50.674;4.616;2022-11-15T07:00:12;10.35;;;5.35;;
71087;SDS011;58747;50.674;4.616;2022-11-15T07:02:37;9.40;;;5.28;;
71087;SDS011;58747;50.674;4.616;2022-11-15T07:05:03;9.93;;;5.60;;
71087;SDS011;58747;50.674;4.616;2022-11-15T07:07:28;8.30;;;5.13;;
71087;SDS011;58747;50.674;4.616;2022-11-15T07:09:54;7.47;;;4.43;;
71087;SDS011;58747;50.674;4.616;2022-11-15T07:12:19;8.03;;;4.23;;
71087;SDS011;58747;50.674;4.616;2022-11-15T07:14:44;8.55;;;4.30;;
71087;SDS011;58747;50.674;4.616;2022-11-15T07:17:09;7.10;;;4.20;;
71087;SDS011;58747;50.674;4.616;2022-11-15T07:19:35;9.33;;;3.80;;
71087;SDS011;58747;50.674;4.616;2022-11-15T07:22:00;8.80;;;3.50;;
71087;SDS011;58747;50.674;4.616;2022-11-15T07:24:25;9.70;;;4.03;;
71087;SDS011;58747;50.674;4.616;2022-11-15T07:26:51;8.63;;;3.93;;
71087;SDS011;58747;50.674;4.616;2022-11-15T07:29:16;7.80;;;3.90;;
71087;SDS011;58747;50.674;4.616;2022-11-15T07:31:41;5.77;;;3.33;;
71087;SDS011;58747;50.674;4.616;2022-11-15T07:34:07;5.50;;;3.50;;
71087;SDS011;58747;50.674;4.616;2022-11-15T07:36:33;5.20;;;3.73;;
71087;SDS011;58747;50.674;4.616;2022-11-15T07:38:58;6.53;;;3.53;;
71087;SDS011;58747;50.674;4.616;2022-11-15T07:41:24;6.18;;;3.83;;
71087;SDS011;58747;50.674;4.616;2022-11-15T07:43:52;6.97;;;3.43;;
71087;SDS011;58747;50.674;4.616;2022-11-15T07:46:17;6.40;;;4.20;;
71087;SDS011;58747;50.674;4.616;2022-11-15T07:48:43;5.33;;;2.80;;
71087;SDS011;58747;50.674;4.616;2022-11-15T07:51:11;6.43;;;3.70;;
71087;SDS011;58747;50.674;4.616;2022-11-15T07:53:40;6.00;;;2.60;;
71087;SDS011;58747;50.674;4.616;2022-11-15T07:56:09;13.85;;;3.25;;
71087;SDS011;58747;50.674;4.616;2022-11-15T07:58:35;6.83;;;2.80;;
71087;SDS011;58747;50.674;4.616;2022-11-15T08:01:03;3.80;;;2.00;;
71087;SDS011;58747;50.674;4.616;2022-11-15T08:03:33;5.18;;;2.85;;
71087;SDS011;58747;50.674;4.616;2022-11-15T08:05:59;4.50;;;2.10;;
71087;SDS011;58747;50.674;4.616;2022-11-15T08:08:24;6.40;;;2.35;;
71087;SDS011;58747;50.674;4.616;2022-11-15T08:10:49;3.17;;;2.70;;
71087;SDS011;58747;50.674;4.616;2022-11-15T08:13:15;7.40;;;3.10;;
71087;SDS011;58747;50.674;4.616;2022-11-15T08:15:41;6.50;;;2.27;;
71087;SDS011;58747;50.674;4.616;2022-11-15T08:18:12;2.83;;;2.22;;
71087;SDS011;58747;50.674;4.616;2022-11-15T08:20:39;4.97;;;2.53;;
71087;SDS011;58747;50.674;4.616;2022-11-15T08:23:05;4.95;;;2.28;;
71087;SDS011;58747;50.674;4.616;2022-11-15T08:25:32;8.80;;;2.60;;
71087;SDS011;58747;50.674;4.616;2022-11-15T08:27:59;7.27;;;2.00;;
71087;SDS011;58747;50.674;4.616;2022-11-15T08:30:27;4.72;;;2.20;;
71087;SDS011;58747;50.674;4.616;2022-11-15T08:32:52;4.82;;;2.05;;
71087;SDS011;58747;50.674;4.616;2022-11-15T08:35:19;2.80;;;1.95;;
71087;SDS011;58747;50.674;4.616;2022-11-15T08:37:45;3.07;;;1.53;;
71087;SDS011;58747;50.674;4.616;2022-11-15T08:40:11;6.95;;;2.17;;
71087;SDS011;58747;50.674;4.616;2022-11-15T08:42:38;5.63;;;1.85;;
71087;SDS011;58747;50.674;4.616;2022-11-15T08:45:04;5.35;;;1.95;;
71087;SDS011;58747;50.674;4.616;2022-11-15T08:47:30;1.83;;;1.30;;
71087;SDS011;58747;50.674;4.616;2022-11-15T08:49:55;4.63;;;2.67;;
71087;SDS011;58747;50.674;4.616;2022-11-15T08:52:21;4.90;;;1.70;;
71087;SDS011;58747;50.674;4.616;2022-11-15T08:54:46;3.90;;;1.80;;
71087;SDS011;58747;50.674;4.616;2022-11-15T08:57:11;8.50;;;2.17;;
71087;SDS011;58747;50.674;4.616;2022-11-15T08:59:37;4.23;;;2.30;;
71087;SDS011;58747;50.674;4.616;2022-11-15T09:02:03;7.87;;;2.63;;
71087;SDS011;58747;50.674;4.616;2022-11-15T09:04:29;6.03;;;2.30;;
71087;SDS011;58747;50.674;4.616;2022-11-15T09:06:54;5.43;;;2.40;;
71087;SDS011;58747;50.674;4.616;2022-11-15T09:09:20;2.97;;;1.80;;
71087;SDS011;58747;50.674;4.616;2022-11-15T09:11:45;5.57;;;2.13;;
71087;SDS011;58747;50.674;4.616;2022-11-15T09:14:11;3.80;;;1.63;;
71087;SDS011;58747;50.674;4.616;2022-11-15T09:16:37;3.45;;;1.60;;
71087;SDS011;58747;50.674;4.616;2022-11-15T09:19:03;2.17;;;1.73;;
71087;SDS011;58747;50.674;4.616;2022-11-15T09:21:29;2.90;;;1.75;;
71087;SDS011;58747;50.674;4.616;2022-11-15T09:23:55;6.57;;;2.27;;
71087;SDS011;58747;50.674;4.616;2022-11-15T09:26:20;3.33;;;1.70;;
71087;SDS011;58747;50.674;4.616;2022-11-15T09:28:46;4.83;;;2.17;;
71087;SDS011;58747;50.674;4.616;2022-11-15T09:31:11;2.63;;;1.57;;
71087;SDS011;58747;50.674;4.616;2022-11-15T09:33:37;7.30;;;1.90;;
71087;SDS011;58747;50.674;4.616;2022-11-15T09:36:03;4.57;;;1.60;;
71087;SDS011;58747;50.674;4.616;2022-11-15T09:38:31;3.47;;;1.30;;
71087;SDS011;58747;50.674;4.616;2022-11-15T09:41:48;2.92;;;1.50;;
71087;SDS011;58747;50.674;4.616;2022-11-15T09:43:46;4.47;;;2.15;;
71087;SDS011;58747;50.674;4.616;2022-11-15T09:46:36;4.22;;;1.50;;
71087;SDS011;58747;50.674;4.616;2022-11-15T09:49:24;5.83;;;2.70;;
71087;SDS011;58747;50.674;4.616;2022-11-15T09:51:51;6.45;;;1.95;;
71087;SDS011;58747;50.674;4.616;2022-11-15T09:54:32;2.80;;;1.50;;
71087;SDS011;58747;50.674;4.616;2022-11-15T09:57:11;4.45;;;1.80;;
71087;SDS011;58747;50.674;4.616;2022-11-15T09:59:47;5.78;;;1.90;;
71087;SDS011;58747;50.674;4.616;2022-11-15T10:05:19;4.13;;;1.75;;
71087;SDS011;58747;50.674;4.616;2022-11-15T10:10:41;2.05;;;1.50;;
71087;SDS011;58747;50.674;4.616;2022-11-15T10:13:31;3.40;;;2.00;;
71087;SDS011;58747;50.674;4.616;2022-11-15T10:15:59;8.10;;;1.70;;
71087;SDS011;58747;50.674;4.616;2022-11-15T10:24:43;2.45;;;1.30;;
71087;SDS011;58747;50.674;4.616;2022-11-15T10:27:10;5.93;;;1.60;;
71087;SDS011;58747;50.674;4.616;2022-11-15T10:29:42;2.43;;;1.37;;
71087;SDS011;58747;50.674;4.616;2022-11-15T10:32:10;4.10;;;1.88;;
71087;SDS011;58747;50.674;4.616;2022-11-15T10:34:36;3.08;;;1.75;;
71087;SDS011;58747;50.674;4.616;2022-11-15T10:37:02;3.33;;;1.40;;
71087;SDS011;58747;50.674;4.616;2022-11-15T10:39:28;3.65;;;1.40;;
71087;SDS011;58747;50.674;4.616;2022-11-15T10:41:54;2.77;;;1.90;;
71087;SDS011;58747;50.674;4.616;2022-11-15T10:44:21;4.57;;;1.88;;
71087;SDS011;58747;50.674;4.616;2022-11-15T10:54:25;5.50;;;1.27;;
71087;SDS011;58747;50.674;4.616;2022-11-15T10:56:59;5.40;;;1.40;;
71087;SDS011;58747;50.674;4.616;2022-11-15T10:59:26;4.10;;;1.42;;
71087;SDS011;58747;50.674;4.616;2022-11-15T11:01:55;5.35;;;0.98;;
71087;SDS011;58747;50.674;4.616;2022-11-15T11:04:23;3.63;;;1.00;;
71087;SDS011;58747;50.674;4.616;2022-11-15T11:06:49;3.45;;;1.65;;
71087;SDS011;58747;50.674;4.616;2022-11-15T11:09:30;4.40;;;1.67;;
71087;SDS011;58747;50.674;4.616;2022-11-15T11:12:03;5.78;;;1.83;;
71087;SDS011;58747;50.674;4.616;2022-11-15T11:14:32;3.28;;;1.08;;
71087;SDS011;58747;50.674;4.616;2022-11-15T11:25:34;4.88;;;1.70;;
71087;SDS011;58747;50.674;4.616;2022-11-15T11:28:32;2.72;;;1.83;;
71087;SDS011;58747;50.674;4.616;2022-11-15T11:31:20;6.73;;;1.53;;
71087;SDS011;58747;50.674;4.616;2022-11-15T11:33:58;8.23;;;3.20;;
71087;SDS011;58747;50.674;4.616;2022-11-15T11:36:26;3.88;;;2.38;;
71087;SDS011;58747;50.674;4.616;2022-11-15T11:47:38;1.75;;;1.15;;
71087;SDS011;58747;50.674;4.616;2022-11-15T11:50:18;4.38;;;1.42;;
71087;SDS011;58747;50.674;4.616;2022-11-15T11:55:32;4.47;;;1.98;;
71087;SDS011;58747;50.674;4.616;2022-11-15T12:09:14;8.25;;;3.55;;
71087;SDS011;58747;50.674;4.616;2022-11-15T12:14:51;5.18;;;2.60;;
71087;SDS011;58747;50.674;4.616;2022-11-15T12:17:25;3.87;;;2.30;;
71087;SDS011;58747;50.674;4.616;2022-11-15T12:19:57;5.40;;;2.00;;
71087;SDS011;58747;50.674;4.616;2022-11-15T12:22:44;3.10;;;1.45;;
71087;SDS011;58747;50.674;4.616;2022-11-15T12:25:35;3.67;;;1.65;;
71087;SDS011;58747;50.674;4.616;2022-11-15T12:28:18;2.15;;;1.70;;
71087;SDS011;58747;50.674;4.616;2022-11-15T12:30:50;6.87;;;1.73;;
71087;SDS011;58747;50.674;4.616;2022-11-15T12:33:39;4.28;;;1.80;;
71087;SDS011;58747;50.674;4.616;2022-11-15T12:36:11;4.95;;;1.80;;
71087;SDS011;58747;50.674;4.616;2022-11-15T12:39:07;5.90;;;1.83;;
71087;SDS011;58747;50.674;4.616;2022-11-15T12:41:35;2.35;;;1.35;;
71087;SDS011;58747;50.674;4.616;2022-11-15T12:44:02;3.37;;;1.87;;
71087;SDS011;58747;50.674;4.616;2022-11-15T12:52:09;3.97;;;1.85;;
71087;SDS011;58747;50.674;4.616;2022-11-15T12:56:48;4.95;;;1.95;;
71087;SDS011;58747;50.674;4.616;2022-11-15T13:02:22;2.67;;;1.40;;
71087;SDS011;58747;50.674;4.616;2022-11-15T13:04:48;4.05;;;1.70;;
71087;SDS011;58747;50.674;4.616;2022-11-15T13:10:01;4.15;;;1.88;;
71087;SDS011;58747;50.674;4.616;2022-11-15T13:36:03;1.80;;;1.70;;
71087;SDS011;58747;50.674;4.616;2022-11-15T13:38:36;1.38;;;1.27;;
71087;SDS011;58747;50.674;4.616;2022-11-15T13:41:20;1.98;;;1.88;;
71087;SDS011;58747;50.674;4.616;2022-11-15T13:43:48;3.55;;;1.65;;
71087;SDS011;58747;50.674;4.616;2022-11-15T13:46:20;3.40;;;1.63;;
71087;SDS011;58747;50.674;4.616;2022-11-15T13:48:46;3.13;;;1.55;;
71087;SDS011;58747;50.674;4.616;2022-11-15T13:53:43;1.37;;;1.23;;
71087;SDS011;58747;50.674;4.616;2022-11-15T13:56:13;2.22;;;1.52;;
71087;SDS011;58747;50.674;4.616;2022-11-15T13:58:40;2.90;;;1.77;;
71087;SDS011;58747;50.674;4.616;2022-11-15T14:01:06;2.93;;;1.30;;
71087;SDS011;58747;50.674;4.616;2022-11-15T14:03:32;1.63;;;1.30;;
71087;SDS011;58747;50.674;4.616;2022-11-15T14:06:12;2.30;;;1.27;;
71087;SDS011;58747;50.674;4.616;2022-11-15T14:09:29;3.72;;;1.60;;
71087;SDS011;58747;50.674;4.616;2022-11-15T14:11:34;2.35;;;1.65;;
71087;SDS011;58747;50.674;4.616;2022-11-15T14:16:35;3.35;;;1.48;;
71087;SDS011;58747;50.674;4.616;2022-11-15T14:19:56;4.30;;;1.75;;
71087;SDS011;58747;50.674;4.616;2022-11-15T14:24:47;3.03;;;1.10;;
71087;SDS011;58747;50.674;4.616;2022-11-15T14:28:07;1.58;;;1.48;;
71087;SDS011;58747;50.674;4.616;2022-11-15T14:30:43;2.83;;;1.35;;
71087;SDS011;58747;50.674;4.616;2022-11-15T14:33:30;2.75;;;1.40;;
71087;SDS011;58747;50.674;4.616;2022-11-15T14:36:10;2.50;;;1.48;;
71087;SDS011;58747;50.674;4.616;2022-11-15T14:38:36;3.53;;;1.87;;
71087;SDS011;58747;50.674;4.616;2022-11-15T14:41:01;2.17;;;1.52;;
71087;SDS011;58747;50.674;4.616;2022-11-15T14:43:27;1.57;;;1.47;;
71087;SDS011;58747;50.674;4.616;2022-11-15T14:45:52;1.70;;;1.50;;
71087;SDS011;58747;50.674;4.616;2022-11-15T14:48:17;1.80;;;1.52;;
71087;SDS011;58747;50.674;4.616;2022-11-15T14:50:43;2.77;;;1.97;;
71087;SDS011;58747;50.674;4.616;2022-11-15T14:53:13;2.97;;;1.40;;
71087;SDS011;58747;50.674;4.616;2022-11-15T14:55:40;3.67;;;1.30;;
71087;SDS011;58747;50.674;4.616;2022-11-15T14:58:06;1.67;;;1.23;;
71087;SDS011;58747;50.674;4.616;2022-11-15T15:00:36;3.90;;;1.70;;
71087;SDS011;58747;50.674;4.616;2022-11-15T15:03:02;3.10;;;1.85;;
71087;SDS011;58747;50.674;4.616;2022-11-15T15:05:36;2.20;;;1.20;;
71087;SDS011;58747;50.674;4.616;2022-11-15T15:08:08;3.67;;;1.85;;
71087;SDS011;58747;50.674;4.616;2022-11-15T15:10:38;2.03;;;1.33;;
71087;SDS011;58747;50.674;4.616;2022-11-15T15:13:06;2.75;;;1.88;;
71087;SDS011;58747;50.674;4.616;2022-11-15T15:15:45;1.63;;;1.38;;
71087;SDS011;58747;50.674;4.616;2022-11-15T15:18:11;3.45;;;1.70;;
71087;SDS011;58747;50.674;4.616;2022-11-15T15:20:37;3.83;;;2.27;;
71087;SDS011;58747;50.674;4.616;2022-11-15T15:23:04;3.25;;;2.42;;
71087;SDS011;58747;50.674;4.616;2022-11-15T15:25:31;4.13;;;2.17;;
71087;SDS011;58747;50.674;4.616;2022-11-15T15:27:59;7.10;;;2.80;;
71087;SDS011;58747;50.674;4.616;2022-11-15T15:30:26;3.10;;;2.25;;
71087;SDS011;58747;50.674;4.616;2022-11-15T15:32:53;3.25;;;1.90;;
71087;SDS011;58747;50.674;4.616;2022-11-15T15:35:19;2.47;;;2.23;;
71087;SDS011;58747;50.674;4.616;2022-11-15T15:37:46;4.88;;;2.55;;
71087;SDS011;58747;50.674;4.616;2022-11-15T15:40:16;2.17;;;1.98;;
71087;SDS011;58747;50.674;4.616;2022-11-15T15:42:45;4.20;;;2.90;;
71087;SDS011;58747;50.674;4.616;2022-11-15T15:45:10;5.53;;;3.28;;
71087;SDS011;58747;50.674;4.616;2022-11-15T15:47:36;4.38;;;2.90;;
71087;SDS011;58747;50.674;4.616;2022-11-15T15:50:03;5.13;;;2.93;;
71087;SDS011;58747;50.674;4.616;2022-11-15T15:52:29;3.95;;;2.83;;
71087;SDS011;58747;50.674;4.616;2022-11-15T15:54:55;3.00;;;2.37;;
71087;SDS011;58747;50.674;4.616;2022-11-15T15:57:20;5.90;;;3.00;;
71087;SDS011;58747;50.674;4.616;2022-11-15T15:59:45;3.37;;;2.87;;
71087;SDS011;58747;50.674;4.616;2022-11-15T16:02:11;3.22;;;2.40;;
71087;SDS011;58747;50.674;4.616;2022-11-15T16:04:37;5.93;;;3.17;;
71087;SDS011;58747;50.674;4.616;2022-11-15T16:07:03;3.40;;;2.90;;
71087;SDS011;58747;50.674;4.616;2022-11-15T16:09:29;17.10;;;9.70;;
71087;SDS011;58747;50.674;4.616;2022-11-15T16:12:15;7.30;;;4.72;;
71087;SDS011;58747;50.674;4.616;2022-11-15T16:14:41;9.88;;;4.28;;
71087;SDS011;58747;50.674;4.616;2022-11-15T16:17:17;7.43;;;4.22;;
71087;SDS011;58747;50.674;4.616;2022-11-15T16:19:44;6.82;;;4.05;;
71087;SDS011;58747;50.674;4.616;2022-11-15T16:22:10;9.13;;;4.47;;
71087;SDS011;58747;50.674;4.616;2022-11-15T16:24:35;10.23;;;4.10;;
71087;SDS011;58747;50.674;4.616;2022-11-15T16:27:00;4.40;;;2.60;;
71087;SDS011;58747;50.674;4.616;2022-11-15T16:29:26;8.07;;;5.03;;
71087;SDS011;58747;50.674;4.616;2022-11-15T16:31:51;6.90;;;3.77;;
71087;SDS011;58747;50.674;4.616;2022-11-15T16:34:17;5.33;;;3.03;;
71087;SDS011;58747;50.674;4.616;2022-11-15T16:36:42;3.67;;;3.03;;
71087;SDS011;58747;50.674;4.616;2022-11-15T16:39:10;5.00;;;2.33;;
71087;SDS011;58747;50.674;4.616;2022-11-15T16:41:38;6.85;;;2.70;;
71087;SDS011;58747;50.674;4.616;2022-11-15T16:44:03;3.15;;;2.63;;
71087;SDS011;58747;50.674;4.616;2022-11-15T16:46:29;8.83;;;3.97;;
71087;SDS011;58747;50.674;4.616;2022-11-15T16:48:54;6.03;;;3.43;;